Estreito, Brazil
Current Conditions -  °F | °C
As of 5:00 PM on Friday 21 Nov 2014 (Local Time) from SBPK Reporting Station
Clear Clear  
Wind Chill: 77°   Ceiling: Unl
Heat Index: 79°   Visibility: 5mi
Dew Point: 70°   Wind: 9mph
Humidity: 78%   Direction: 100°E
Pressure: 29.74"   Gusts: NA
Location:  31.82°S, 51.75°W
Report Text: SBPK 211900Z 10008KT 8000 NSC 25/21 Q1007
Loading
Personal Weather Stations






























Interactive Weather Map New forecast layout! Learn more

10-Day Weather Forecast

Advertisements
Track Severe Weather on mobile